Oskaloosa, Iowa
Current Conditions -  °F | °C
As of 1:55 AM on Friday 19 Dec 2014 (Local Time) from KOOA Reporting Station
Overcast Overcast  
Wind Chill: 26°   Ceiling: 2600
Heat Index: 26°   Visibility: 7mi
Dew Point: 24°   Wind: 0mph
Humidity: 90%   Direction: NA
Pressure: 30.29"   Gusts: NA
Location:  41.3°N, 92.64°W
Report Text: KOOA 190755Z AUTO 00000KT 7SM OVC026 M03/M05 A3029 RMK AO2 T10321046
Loading
Personal Weather Stations






























Interactive Weather Map New forecast layout! Learn more

10-Day Weather Forecast

Advertisements
Track Severe Weather on mobile